createdAt,value
2019-05-18T00:03:24.863Z,8.80
2019-05-18T00:05:53.023Z,11.20
2019-05-18T00:08:39.395Z,9.00
2019-05-18T00:11:07.018Z,9.00
2019-05-18T00:13:53.809Z,9.60
2019-05-18T00:16:21.455Z,8.80
2019-05-18T00:18:49.211Z,11.60
2019-05-18T00:21:35.513Z,8.60
2019-05-18T00:26:36.496Z,9.00
2019-05-18T00:29:05.781Z,10.00
2019-05-18T00:31:52.473Z,9.20
2019-05-18T00:34:20.251Z,8.60
2019-05-18T00:36:48.011Z,9.40
2019-05-18T00:39:15.671Z,9.60
2019-05-18T00:42:02.028Z,9.80
2019-05-18T00:44:48.311Z,10.00
2019-05-18T00:47:15.931Z,8.20
2019-05-18T00:50:02.280Z,7.60
2019-05-18T00:52:29.891Z,11.60
2019-05-18T00:55:16.260Z,6.60
2019-05-18T00:57:43.944Z,10.20
2019-05-18T01:03:18.326Z,9.20
2019-05-18T01:05:46.366Z,9.80
2019-05-18T01:08:14.031Z,6.80
2019-05-18T01:10:41.577Z,6.00
2019-05-18T01:13:09.252Z,9.20
2019-05-18T01:15:36.795Z,6.00
2019-05-18T01:18:23.199Z,7.00
2019-05-18T01:20:50.856Z,6.80
2019-05-18T01:23:37.179Z,8.60
2019-05-18T01:26:23.455Z,6.60
2019-05-18T01:29:02.953Z,6.20
2019-05-18T01:31:20.426Z,3.20
2019-05-18T01:34:06.836Z,8.40
2019-05-18T01:36:36.935Z,9.00
2019-05-18T01:39:23.335Z,6.40
2019-05-18T01:41:50.903Z,6.60
2019-05-18T01:44:37.182Z,6.60
2019-05-18T01:47:25.862Z,7.00
2019-05-18T01:50:12.510Z,6.80
2019-05-18T01:52:40.542Z,10.20
2019-05-18T01:58:32.018Z,6.00
2019-05-18T02:01:21.184Z,6.60
2019-05-18T02:03:49.212Z,5.60
2019-05-18T02:06:16.774Z,9.40
2019-05-18T02:08:44.947Z,8.20
2019-05-18T02:11:31.366Z,8.20
2019-05-18T02:13:58.997Z,8.20
2019-05-18T02:16:48.286Z,9.60
2019-05-18T02:19:17.907Z,7.00
2019-05-18T02:21:45.452Z,7.80
2019-05-18T02:24:31.881Z,8.20
2019-05-18T02:26:59.492Z,3.60
2019-05-18T02:29:46.116Z,7.80
2019-05-18T02:32:13.980Z,4.40
2019-05-18T02:34:41.740Z,3.80
2019-05-18T02:37:28.430Z,6.00
2019-05-18T02:42:44.104Z,0.40
2019-05-18T02:45:30.550Z,8.20
2019-05-18T02:48:17.228Z,7.00
2019-05-18T02:53:19.443Z,5.20
2019-05-18T02:56:05.858Z,9.20
2019-05-18T02:58:52.276Z,9.00
2019-05-18T03:01:19.982Z,4.00
2019-05-18T03:04:06.339Z,8.60
2019-05-18T03:09:26.180Z,5.60
2019-05-18T03:12:12.633Z,4.80
2019-05-18T03:14:40.386Z,6.60
2019-05-18T03:17:26.801Z,7.00
2019-05-18T03:19:54.554Z,7.60
2019-05-18T03:22:22.305Z,6.40
2019-05-18T03:25:08.787Z,6.00
2019-05-18T03:27:36.484Z,3.40
2019-05-18T03:30:23.192Z,6.00
2019-05-18T03:35:24.150Z,4.80
2019-05-18T03:38:10.566Z,8.80
2019-05-18T03:48:56.698Z,6.20
2019-05-18T03:51:43.093Z,6.20
2019-05-18T03:54:29.784Z,9.60
2019-05-18T03:56:57.519Z,10.60
2019-05-18T03:59:44.184Z,9.40
2019-05-18T04:02:30.628Z,10.40
2019-05-18T04:04:58.235Z,9.00
2019-05-18T04:07:45.070Z,8.20
2019-05-18T04:10:12.814Z,6.40
2019-05-18T04:15:13.354Z,12.20
2019-05-18T04:17:41.015Z,13.40
2019-05-18T04:20:08.674Z,7.80
2019-05-18T04:22:55.096Z,9.80
2019-05-18T04:25:22.732Z,9.80
2019-05-18T04:27:50.378Z,10.00
2019-05-18T04:30:36.747Z,12.60
2019-05-18T04:33:23.173Z,9.20
2019-05-18T04:36:09.565Z,10.00
2019-05-18T04:38:55.979Z,8.60
2019-05-18T04:41:23.654Z,6.80
2019-05-18T04:43:51.319Z,8.60
2019-05-18T04:46:19.277Z,10.40
2019-05-18T04:48:48.039Z,11.20
2019-05-18T04:51:34.391Z,10.00
2019-05-18T04:54:02.262Z,8.80
2019-05-18T04:59:16.471Z,9.80
2019-05-18T05:02:03.175Z,9.80
2019-05-18T05:04:30.887Z,10.40
2019-05-18T05:07:17.314Z,9.40
2019-05-18T05:10:10.030Z,7.20
2019-05-18T05:12:37.804Z,10.00
2019-05-18T05:15:24.206Z,11.60
2019-05-18T05:17:51.826Z,9.40
2019-05-18T05:20:21.073Z,9.80
2019-05-18T05:24:12.426Z,9.80
2019-05-18T05:25:58.389Z,7.40
2019-05-18T05:29:08.747Z,8.20
2019-05-18T05:31:45.163Z,9.00
2019-05-18T05:34:34.059Z,9.40
2019-05-18T05:40:10.144Z,10.40
2019-05-18T05:42:37.735Z,9.40
2019-05-18T05:45:24.156Z,9.20
2019-05-18T05:47:54.637Z,9.00
2019-05-18T05:50:55.206Z,4.80
2019-05-18T05:56:17.133Z,9.20
2019-05-18T05:58:56.685Z,10.40
2019-05-18T06:01:32.954Z,9.00
2019-05-18T06:04:00.598Z,9.60
2019-05-18T06:06:47.028Z,7.80
2019-05-18T06:12:34.005Z,10.00
2019-05-18T06:17:54.829Z,9.00
2019-05-18T06:20:22.599Z,10.00
2019-05-18T06:23:09.047Z,9.40
2019-05-18T06:28:41.954Z,10.40
2019-05-18T06:31:12.045Z,10.40
2019-05-18T06:33:39.746Z,9.00
2019-05-18T06:36:26.112Z,8.60
2019-05-18T06:38:53.862Z,7.80
2019-05-18T06:41:40.324Z,8.40
2019-05-18T06:44:08.013Z,11.60
2019-05-18T06:46:54.468Z,10.00
2019-05-18T06:49:22.063Z,7.40
2019-05-18T06:52:08.518Z,9.00
2019-05-18T06:54:36.203Z,9.60
2019-05-18T06:57:22.662Z,8.20
2019-05-18T06:59:50.236Z,10.80
2019-05-18T07:02:36.688Z,8.60
2019-05-18T07:05:05.408Z,3.60
2019-05-18T07:07:51.811Z,10.20
2019-05-18T07:13:15.161Z,8.60
2019-05-18T07:18:34.787Z,9.60
2019-05-18T07:21:02.620Z,6.40
2019-05-18T07:23:49.055Z,8.80
2019-05-18T07:29:33.813Z,9.00
2019-05-18T07:32:09.898Z,7.40
2019-05-18T07:34:56.368Z,7.40
2019-05-18T07:37:24.120Z,6.80
2019-05-18T07:40:12.532Z,9.00
2019-05-18T07:42:40.258Z,7.00
2019-05-18T07:45:26.674Z,9.20
2019-05-18T07:47:54.429Z,7.00
2019-05-18T07:50:22.198Z,9.40
2019-05-18T07:53:08.567Z,9.40
2019-05-18T07:58:29.196Z,7.00
2019-05-18T08:04:04.370Z,6.80
2019-05-18T08:06:32.449Z,7.80
2019-05-18T08:09:18.839Z,6.00
2019-05-18T08:11:46.492Z,7.00
2019-05-18T08:14:32.937Z,9.00
2019-05-18T08:17:00.632Z,7.80
2019-05-18T08:19:47.086Z,2.20
2019-05-18T08:25:24.511Z,2.20
2019-05-18T08:30:57.516Z,7.00
2019-05-18T08:33:25.244Z,8.00
2019-05-18T08:36:11.619Z,5.60
2019-05-18T08:38:58.419Z,3.60
2019-05-18T08:41:44.788Z,1.00
2019-05-18T08:44:12.517Z,6.00
2019-05-18T08:46:40.509Z,6.60
2019-05-18T08:49:08.166Z,5.00
2019-05-18T08:51:37.919Z,4.80
2019-05-18T08:54:05.936Z,5.40
2019-05-18T08:56:33.958Z,6.20
2019-05-18T08:59:03.401Z,7.40
2019-05-18T09:01:40.508Z,6.60
2019-05-18T09:04:08.102Z,5.80
2019-05-18T09:06:35.812Z,5.00
2019-05-18T09:09:05.522Z,7.00
2019-05-18T09:11:38.154Z,4.00
2019-05-18T09:14:05.708Z,4.80
2019-05-18T09:16:36.580Z,7.60
2019-05-18T09:19:04.131Z,7.80
2019-05-18T09:21:31.785Z,5.40
2019-05-18T09:23:59.785Z,5.00
2019-05-18T09:26:29.086Z,4.00
2019-05-18T09:28:56.662Z,4.60
2019-05-18T09:31:24.657Z,4.20
2019-05-18T09:33:52.264Z,4.80
2019-05-18T09:36:20.051Z,5.20
2019-05-18T09:38:48.170Z,5.20
2019-05-18T09:41:18.484Z,5.00
2019-05-18T09:43:46.070Z,5.00
2019-05-18T09:46:14.116Z,5.00
2019-05-18T09:48:41.924Z,4.00
2019-05-18T09:51:09.568Z,6.00
2019-05-18T09:53:50.474Z,5.00
2019-05-18T09:56:12.634Z,1.40
2019-05-18T09:58:41.895Z,6.40
2019-05-18T10:01:16.155Z,3.00
2019-05-18T10:03:43.703Z,5.80
2019-05-18T10:06:13.202Z,4.20
2019-05-18T10:08:43.088Z,6.20
2019-05-18T10:11:12.990Z,5.80
2019-05-18T10:13:40.710Z,6.80
2019-05-18T10:16:08.733Z,5.00
2019-05-18T10:18:36.459Z,6.40
2019-05-18T10:21:04.056Z,5.40
2019-05-18T10:23:32.002Z,6.20
2019-05-18T10:25:59.597Z,5.60
2019-05-18T10:28:27.325Z,6.20
2019-05-18T10:30:55.241Z,7.00
2019-05-18T10:33:24.043Z,5.60
2019-05-18T10:35:51.657Z,7.00
2019-05-18T10:38:19.583Z,6.60
2019-05-18T10:40:47.226Z,4.20
2019-05-18T10:43:16.243Z,4.20
2019-05-18T10:45:45.155Z,4.00
2019-05-18T10:48:13.460Z,4.60
2019-05-18T10:50:44.110Z,4.00
2019-05-18T10:53:27.511Z,8.20
2019-05-18T10:55:41.454Z,5.00
2019-05-18T10:58:09.244Z,5.40
2019-05-18T11:00:37.245Z,4.80
2019-05-18T11:03:04.884Z,5.80
2019-05-18T11:05:32.467Z,6.00
2019-05-18T11:08:06.142Z,5.20
2019-05-18T11:10:38.822Z,5.40
2019-05-18T11:13:08.210Z,4.00
2019-05-18T11:15:38.418Z,5.40
2019-05-18T11:18:11.790Z,5.00
2019-05-18T11:20:38.416Z,5.00
2019-05-18T11:23:09.299Z,5.60
2019-05-18T11:25:37.038Z,3.20
2019-05-18T11:28:04.632Z,6.00
2019-05-18T11:30:32.742Z,6.20
2019-05-18T11:33:02.060Z,7.00
2019-05-18T11:35:29.912Z,5.80
2019-05-18T11:37:57.853Z,4.00
2019-05-18T11:40:25.488Z,6.20
2019-05-18T11:42:53.141Z,6.00
2019-05-18T11:45:31.376Z,6.80
2019-05-18T11:47:58.981Z,4.40
2019-05-18T11:50:27.289Z,4.00
2019-05-18T11:52:54.863Z,3.00
2019-05-18T11:55:22.585Z,4.00
2019-05-18T11:57:52.229Z,3.80
2019-05-18T12:00:24.859Z,5.00
2019-05-18T12:02:55.812Z,5.00
2019-05-18T12:05:25.903Z,5.00
2019-05-18T12:07:53.480Z,5.80
2019-05-18T12:10:39.227Z,6.20
2019-05-18T12:13:06.954Z,6.20
2019-05-18T12:15:36.284Z,4.60
2019-05-18T12:18:05.842Z,4.80
2019-05-18T12:20:33.294Z,6.20
2019-05-18T12:23:01.593Z,3.00
2019-05-18T12:25:29.135Z,5.80
2019-05-18T12:27:58.734Z,6.20
2019-05-18T12:30:29.863Z,5.00
2019-05-18T12:32:57.456Z,5.00
2019-05-18T12:35:25.092Z,3.80
2019-05-18T12:37:55.556Z,5.00
2019-05-18T12:40:23.559Z,6.20
2019-05-18T12:42:54.175Z,6.20
2019-05-18T12:45:23.332Z,5.80
2019-05-18T12:47:50.966Z,4.40
2019-05-18T12:50:23.122Z,7.40
2019-05-18T12:52:48.370Z,5.20
2019-05-18T12:55:20.643Z,5.00
2019-05-18T12:57:48.659Z,5.80
2019-05-18T13:00:22.203Z,5.20
2019-05-18T13:02:53.293Z,6.00
2019-05-18T13:05:20.919Z,6.60
2019-05-18T13:07:48.534Z,7.00
2019-05-18T13:10:21.895Z,7.00
2019-05-18T13:12:52.169Z,6.00
2019-05-18T13:15:21.429Z,6.80
2019-05-18T13:17:49.351Z,6.80
2019-05-18T13:20:17.917Z,6.80
2019-05-18T13:22:45.544Z,7.00
2019-05-18T13:25:15.627Z,1.60
2019-05-18T13:27:43.370Z,6.20
2019-05-18T13:30:11.362Z,6.00
2019-05-18T13:32:39.364Z,5.80
2019-05-18T13:35:06.941Z,6.00
2019-05-18T13:37:34.579Z,5.40
2019-05-18T13:40:02.660Z,6.00
2019-05-18T13:42:31.387Z,5.00
2019-05-18T13:44:59.313Z,6.00
2019-05-18T13:47:27.349Z,5.60
2019-05-18T13:49:58.195Z,8.60
2019-05-18T13:52:26.335Z,7.40
2019-05-18T13:55:03.521Z,9.20
2019-05-18T13:57:30.379Z,8.00
2019-05-18T13:59:56.572Z,8.00
2019-05-18T14:02:24.154Z,7.60
2019-05-18T14:04:51.807Z,8.00
2019-05-18T14:07:19.827Z,7.00
2019-05-18T14:09:49.410Z,7.20
2019-05-18T14:12:17.090Z,9.00
2019-05-18T14:14:45.091Z,9.80
2019-05-18T14:17:13.526Z,8.40
2019-05-18T14:19:41.200Z,7.60
2019-05-18T14:22:09.164Z,9.20
2019-05-18T14:24:36.815Z,8.60
2019-05-18T14:27:04.410Z,4.00
2019-05-18T14:29:33.515Z,4.00
2019-05-18T14:32:01.109Z,6.20
2019-05-18T14:34:28.705Z,3.40
2019-05-18T14:36:56.647Z,4.80
2019-05-18T14:39:24.307Z,4.00
2019-05-18T14:41:51.908Z,6.40
2019-05-18T14:44:19.956Z,5.60
2019-05-18T14:46:47.664Z,5.60
2019-05-18T14:49:15.338Z,4.80
2019-05-18T14:51:43.394Z,5.60
2019-05-18T14:54:29.853Z,6.00
2019-05-18T14:56:57.877Z,7.00
2019-05-18T14:59:25.540Z,5.20
2019-05-18T15:01:54.810Z,6.80
2019-05-18T15:04:22.849Z,6.00
2019-05-18T15:06:50.492Z,6.00
2019-05-18T15:09:21.049Z,0.80
2019-05-18T15:11:56.056Z,6.60
2019-05-18T15:14:23.609Z,6.20
2019-05-18T15:16:54.908Z,6.40
2019-05-18T15:19:22.941Z,4.40
2019-05-18T15:21:50.618Z,6.00
2019-05-18T15:24:18.240Z,7.00
2019-05-18T15:26:46.304Z,6.00
2019-05-18T15:29:17.414Z,5.20
2019-05-18T15:31:46.368Z,6.60
2019-05-18T15:34:14.315Z,5.60
2019-05-18T15:36:41.941Z,8.60
2019-05-18T15:39:09.551Z,7.00
2019-05-18T15:41:37.523Z,8.20
2019-05-18T15:44:05.089Z,8.60
2019-05-18T15:46:41.852Z,10.00
2019-05-18T15:49:09.891Z,7.00
2019-05-18T15:51:37.521Z,9.00
2019-05-18T15:54:05.125Z,7.00
2019-05-18T15:56:33.265Z,8.20
2019-05-18T15:59:00.893Z,7.00
2019-05-18T16:01:28.565Z,6.80
2019-05-18T16:03:56.551Z,6.80
2019-05-18T16:06:24.114Z,6.00
2019-05-18T16:08:51.737Z,6.20
2019-05-18T16:11:24.606Z,1.40
2019-05-18T16:13:52.328Z,7.00
2019-05-18T16:16:20.202Z,7.80
2019-05-18T16:18:48.152Z,6.80
2019-05-18T16:21:15.781Z,7.40
2019-05-18T16:23:44.980Z,9.00
2019-05-18T16:26:21.537Z,7.20
2019-05-18T16:28:45.041Z,7.00
2019-05-18T16:31:12.736Z,11.20
2019-05-18T16:33:55.823Z,9.20
2019-05-18T16:36:24.725Z,9.80
2019-05-18T16:38:59.932Z,6.00
2019-05-18T16:41:27.559Z,7.00
2019-05-18T16:43:56.479Z,9.20
2019-05-18T16:46:24.507Z,9.40
2019-05-18T16:48:52.137Z,7.00
2019-05-18T16:51:19.695Z,8.20
2019-05-18T16:53:50.414Z,6.00
2019-05-18T16:56:18.016Z,6.20
2019-05-18T16:58:45.663Z,7.80
2019-05-18T17:01:16.017Z,8.20
2019-05-18T17:03:43.651Z,6.80
2019-05-18T17:06:11.230Z,4.80
2019-05-18T17:08:39.262Z,6.80
2019-05-18T17:11:06.866Z,5.80
2019-05-18T17:13:34.536Z,6.60
2019-05-18T17:16:05.511Z,6.40
2019-05-18T17:18:38.439Z,7.00
2019-05-18T17:21:09.102Z,7.00
2019-05-18T17:23:37.102Z,4.40
2019-05-18T17:26:04.772Z,6.00
2019-05-18T17:28:32.465Z,5.60
2019-05-18T17:31:00.498Z,7.00
2019-05-18T17:33:31.193Z,7.80
2019-05-18T17:36:01.009Z,5.20
2019-05-18T17:38:31.731Z,7.00
2019-05-18T17:40:59.371Z,7.00
2019-05-18T17:43:29.788Z,10.20
2019-05-18T17:46:00.871Z,9.40
2019-05-18T17:48:28.507Z,3.60
2019-05-18T17:50:56.157Z,7.00
2019-05-18T17:53:24.166Z,6.40
2019-05-18T17:55:51.950Z,7.00
2019-05-18T17:58:19.582Z,9.00
2019-05-18T18:00:50.194Z,8.80
2019-05-18T18:03:17.759Z,12.60
2019-05-18T18:05:47.327Z,9.00
2019-05-18T18:08:17.817Z,9.00
2019-05-18T18:10:47.228Z,8.60
2019-05-18T18:13:17.949Z,9.00
2019-05-18T18:16:08.268Z,9.60
2019-05-18T18:18:15.363Z,10.00
2019-05-18T18:20:56.218Z,9.00
2019-05-18T18:23:26.471Z,6.80
2019-05-18T18:25:54.096Z,7.00
2019-05-18T18:28:25.983Z,9.80
2019-05-18T18:30:53.958Z,3.00
2019-05-18T18:33:21.636Z,9.60
2019-05-18T18:35:57.330Z,6.80
2019-05-18T18:38:25.475Z,9.20
2019-05-18T18:40:53.153Z,9.60
2019-05-18T18:43:22.445Z,12.20
2019-05-18T18:45:54.440Z,10.80
2019-05-18T18:48:26.284Z,12.00
2019-05-18T18:50:51.340Z,7.40
2019-05-18T18:53:20.382Z,10.20
2019-05-18T18:55:49.628Z,11.60
2019-05-18T18:58:39.133Z,9.60
2019-05-18T19:01:11.753Z,12.00
2019-05-18T19:03:42.172Z,9.40
2019-05-18T19:06:11.839Z,11.20
2019-05-18T19:08:42.435Z,12.00
2019-05-18T19:11:11.226Z,10.00
2019-05-18T19:13:45.660Z,12.40
2019-05-18T19:16:11.611Z,12.40
2019-05-18T19:18:42.098Z,9.60
2019-05-18T19:21:09.795Z,14.20
2019-05-18T19:23:37.756Z,11.20
2019-05-18T19:26:05.445Z,10.80
2019-05-18T19:28:50.851Z,13.40
2019-05-18T19:31:18.421Z,13.40
2019-05-18T19:33:46.332Z,14.60
2019-05-18T19:36:14.005Z,15.20
2019-05-18T19:38:41.742Z,13.40
2019-05-18T19:41:09.613Z,18.00
2019-05-18T19:43:40.290Z,12.00
2019-05-18T19:46:08.016Z,15.80
2019-05-18T19:48:35.579Z,10.00
2019-05-18T19:51:06.052Z,11.80
2019-05-18T19:53:36.756Z,13.00
2019-05-18T19:56:04.425Z,10.80
2019-05-18T19:58:35.079Z,12.40
2019-05-18T20:01:08.803Z,10.80
2019-05-18T20:03:41.368Z,12.80
2019-05-18T20:06:08.969Z,12.60
2019-05-18T20:08:36.587Z,10.40
2019-05-18T20:11:04.297Z,10.80
2019-05-18T20:13:33.327Z,12.40
2019-05-18T20:16:00.928Z,9.40
2019-05-18T20:18:29.844Z,10.00
2019-05-18T20:20:57.765Z,10.00
2019-05-18T20:23:31.335Z,12.20
2019-05-18T20:26:00.784Z,13.00
2019-05-18T20:28:30.901Z,9.20
2019-05-18T20:31:02.230Z,9.80
2019-05-18T20:33:33.329Z,10.00
2019-05-18T20:36:01.370Z,14.60
2019-05-18T20:38:29.000Z,9.60
2019-05-18T20:40:56.682Z,15.00
2019-05-18T20:43:24.617Z,10.20
2019-05-18T20:45:52.244Z,12.60
2019-05-18T20:48:21.040Z,4.80
2019-05-18T20:50:50.470Z,12.20
2019-05-18T20:53:18.026Z,7.80
2019-05-18T20:55:47.377Z,10.00
2019-05-18T20:58:18.492Z,15.60
2019-05-18T21:00:46.195Z,12.60
2019-05-18T21:03:14.210Z,9.80
2019-05-18T21:05:44.148Z,12.00
2019-05-18T21:08:15.400Z,12.00
2019-05-18T21:10:43.315Z,11.20
2019-05-18T21:13:11.297Z,10.80
2019-05-18T21:15:38.955Z,12.00
2019-05-18T21:18:08.602Z,13.80
2019-05-18T21:20:36.299Z,14.60
2019-05-18T21:23:03.832Z,13.80
2019-05-18T21:25:40.602Z,12.00
2019-05-18T21:28:08.248Z,9.20
2019-05-18T21:30:35.853Z,10.00
2019-05-18T21:33:12.930Z,5.80
2019-05-18T21:35:40.490Z,11.20
2019-05-18T21:38:19.239Z,9.80
2019-05-18T21:40:47.295Z,16.00
2019-05-18T21:43:14.997Z,14.20
2019-05-18T21:45:43.472Z,12.40
2019-05-18T21:48:14.094Z,14.60
2019-05-18T21:50:41.872Z,12.40
2019-05-18T21:53:09.961Z,13.40
2019-05-18T21:55:37.597Z,10.80
2019-05-18T21:58:05.244Z,12.20
2019-05-18T22:00:37.735Z,13.80
2019-05-18T22:03:06.349Z,11.60
2019-05-18T22:05:34.038Z,12.00
2019-05-18T22:08:05.239Z,13.00
2019-05-18T22:10:32.982Z,12.00
2019-05-18T22:13:00.918Z,14.20
2019-05-18T22:15:29.290Z,12.40
2019-05-18T22:18:22.224Z,13.00
2019-05-18T22:20:43.271Z,12.00
2019-05-18T22:23:07.530Z,12.20
2019-05-18T22:25:36.157Z,9.80
2019-05-18T22:28:03.999Z,12.00
2019-05-18T22:30:33.926Z,14.20
2019-05-18T22:33:01.515Z,10.00
2019-05-18T22:35:33.477Z,14.80
2019-05-18T22:41:08.309Z,9.40
2019-05-18T22:43:54.736Z,12.00
2019-05-18T22:46:41.140Z,12.60
2019-05-18T22:49:08.946Z,11.20
2019-05-18T22:51:55.305Z,14.60
2019-05-18T22:54:41.745Z,13.40
2019-05-18T22:57:28.202Z,14.20
2019-05-18T23:03:03.309Z,15.60
2019-05-18T23:05:31.087Z,12.60
2019-05-18T23:08:31.608Z,12.60
2019-05-18T23:10:59.255Z,13.60
2019-05-18T23:13:27.171Z,12.00
2019-05-18T23:15:54.763Z,10.00
2019-05-18T23:18:22.288Z,15.00
2019-05-18T23:20:50.335Z,14.20
2019-05-18T23:23:17.932Z,13.80
2019-05-18T23:25:45.591Z,11.00
2019-05-18T23:28:16.825Z,15.20
2019-05-18T23:30:44.493Z,13.80
2019-05-18T23:33:15.005Z,13.80
2019-05-18T23:35:43.037Z,13.00
2019-05-18T23:38:10.702Z,10.80
2019-05-18T23:40:38.275Z,12.60
2019-05-18T23:43:24.695Z,14.20
2019-05-18T23:45:52.440Z,13.00
2019-05-18T23:48:39.273Z,15.00
2019-05-18T23:51:06.909Z,13.80
2019-05-18T23:53:34.604Z,15.60
2019-05-18T23:56:21.026Z,14.60
2019-05-18T23:59:07.397Z,14.60
